Time;durP1;ratioP1;P1;durP2;ratioP2;P2;SDS_P1;SDS_P2;PMS_P1;PMS_P2;Temp;Humidity;BMP_temperature;BMP_pressure;BME280_temperature;BME280_humidity;BME280_pressure;Samples;Min_cycle;Max_cycle;Signal;HPM_P1;HPM_P2
2021/11/25 00:02:25;;;;;;;0.20;0.10;;;;;;;3.31;100.00;99975.44;5055791;28;20827;-47
2021/11/25 00:04:52;;;;;;;0.20;0.10;;;;;;;3.13;100.00;99971.09;5043023;28;20452;-47
2021/11/25 00:07:18;;;;;;;0.20;0.10;;;;;;;3.11;100.00;99976.38;5047657;28;20475;-47
2021/11/25 00:09:47;;;;;;;0.73;0.73;;;;;;;3.30;100.00;99971.06;5046370;28;20806;-47
2021/11/25 00:12:14;;;;;;;0.20;0.20;;;;;;;3.28;100.00;99964.03;5040947;28;20483;-47
2021/11/25 00:14:41;;;;;;;0.20;0.10;;;;;;;3.23;100.00;99960.56;5041945;28;20511;-47
2021/11/25 00:17:07;;;;;;;2.73;2.63;;;;;;;3.15;100.00;99958.84;5047880;28;20550;-47
2021/11/25 00:19:34;;;;;;;0.30;0.20;;;;;;;3.24;100.00;99945.69;5046664;28;20501;-47
2021/11/25 00:22:01;;;;;;;0.20;0.17;;;;;;;3.21;100.00;99950.97;5040947;28;20447;-47
2021/11/25 00:24:28;;;;;;;0.60;0.60;;;;;;;3.19;100.00;99952.72;5041418;28;20452;-47
2021/11/25 00:26:54;;;;;;;0.20;0.10;;;;;;;3.24;100.00;99943.06;5047612;28;20522;-48
2021/11/25 00:29:21;;;;;;;0.20;0.10;;;;;;;3.30;100.00;99936.91;5046621;28;20560;-47
2021/11/25 00:31:48;;;;;;;0.40;0.40;;;;;;;3.37;100.00;99936.88;5045444;28;21013;-47
2021/11/25 00:34:14;;;;;;;0.43;0.43;;;;;;;3.44;100.00;99935.97;5041279;28;20460;-47
2021/11/25 00:36:41;;;;;;;0.20;0.10;;;;;;;3.21;100.00;99932.56;5047140;28;20977;-47
2021/11/25 00:39:08;;;;;;;0.60;0.60;;;;;;;3.31;100.00;99943.91;5047171;28;20450;-48
2021/11/25 00:41:35;;;;;;;0.20;0.10;;;;;;;3.05;100.00;99936.16;5023174;28;20447;-47
2021/11/25 00:44:02;;;;;;;0.60;0.60;;;;;;;3.06;100.00;99932.66;5040986;28;20452;-47
2021/11/25 00:46:29;;;;;;;0.20;0.10;;;;;;;3.09;100.00;99938.75;5046952;28;20898;-47
2021/11/25 00:48:55;;;;;;;0.20;0.10;;;;;;;3.10;100.00;99935.25;5047044;28;20453;-47
2021/11/25 00:51:22;;;;;;;0.20;0.10;;;;;;;3.21;100.00;99922.94;5040336;28;20451;-48
2021/11/25 00:53:48;;;;;;;0.20;0.10;;;;;;;3.11;100.00;99926.47;5066930;28;20809;-47
2021/11/25 00:56:15;;;;;;;0.20;0.10;;;;;;;3.14;100.00;99929.09;5046082;28;20449;-47
2021/11/25 00:58:42;;;;;;;0.20;0.10;;;;;;;3.24;100.00;99930.78;5048221;28;20451;-47
2021/11/25 01:01:08;;;;;;;0.20;0.10;;;;;;;3.23;100.00;99928.19;5065503;28;20446;-47
2021/11/25 01:03:35;;;;;;;0.20;0.10;;;;;;;3.21;100.00;99933.44;5052355;28;20453;-47
2021/11/25 01:06:02;;;;;;;0.20;0.10;;;;;;;3.37;100.00;99936.00;5041382;28;20461;-47
2021/11/25 01:08:28;;;;;;;0.43;0.43;;;;;;;3.31;100.00;99926.41;5040550;28;20447;-48
2021/11/25 01:10:55;;;;;;;0.83;0.83;;;;;;;3.37;100.00;99926.34;5046613;28;21012;-47
2021/11/25 01:13:22;;;;;;;0.20;0.10;;;;;;;3.39;100.00;99923.72;5047516;28;20447;-47
2021/11/25 01:15:48;;;;;;;0.20;0.10;;;;;;;3.27;100.00;99928.16;5042826;28;20455;-47
2021/11/25 01:18:17;;;;;;;0.20;0.10;;;;;;;3.34;100.00;99923.75;5040625;28;21048;-47
2021/11/25 01:20:47;;;;;;;0.20;0.13;;;;;;;3.33;100.00;99923.75;5044978;28;20443;-47
2021/11/25 01:23:17;;;;;;;0.20;0.10;;;;;;;3.36;100.00;99916.72;5047696;28;20455;-47
2021/11/25 01:25:44;;;;;;;0.20;0.10;;;;;;;3.43;100.00;99928.97;5044036;28;20789;-47
2021/11/25 01:28:13;;;;;;;0.30;0.20;;;;;;;3.60;100.00;99928.00;5040479;28;20526;-47
2021/11/25 01:30:45;;;;;;;0.40;0.40;;;;;;;3.74;100.00;99921.75;5044671;28;20839;-47
2021/11/25 01:33:15;;;;;;;0.20;0.10;;;;;;;3.69;100.00;99923.53;5048008;28;20473;-48
2021/11/25 01:35:44;;;;;;;0.20;0.10;;;;;;;3.54;100.00;99923.63;5045775;28;20493;-48
2021/11/25 01:38:11;;;;;;;0.20;0.10;;;;;;;3.46;100.00;99921.06;5039080;28;20860;-48
2021/11/25 01:40:40;;;;;;;0.30;0.20;;;;;;;3.41;100.00;99917.56;5040135;28;20474;-47
2021/11/25 01:43:08;;;;;;;1.70;1.23;;;;;;;3.49;100.00;99914.91;5039560;28;20478;-47
2021/11/25 01:45:35;;;;;;;0.20;0.10;;;;;;;3.62;100.00;99918.34;5039047;28;20959;-49
2021/11/25 01:48:02;;;;;;;0.20;0.10;;;;;;;3.47;100.00;99928.06;5045931;28;20533;-47
2021/11/25 01:50:29;;;;;;;0.20;0.10;;;;;;;3.60;100.00;99926.22;5045849;28;20995;-48
2021/11/25 01:52:57;;;;;;;0.20;0.20;;;;;;;3.41;100.00;99914.94;5039798;28;20451;-48
2021/11/25 01:55:26;;;;;;;0.20;0.10;;;;;;;3.37;100.00;99918.47;5039155;28;20479;-47
2021/11/25 01:57:53;;;;;;;0.20;0.10;;;;;;;3.39;100.00;99908.81;5044781;28;20472;-48
2021/11/25 02:00:23;;;;;;;0.20;0.10;;;;;;;3.37;100.00;99913.22;5059690;28;20507;-47
2021/11/25 02:02:52;;;;;;;0.20;0.10;;;;;;;3.33;100.00;99908.00;5051777;28;20811;-48
2021/11/25 02:05:20;;;;;;;0.20;0.10;;;;;;;3.51;100.00;99895.63;5039267;28;20843;-47
2021/11/25 02:07:47;;;;;;;0.20;0.10;;;;;;;3.61;100.00;99893.81;5043363;28;20468;-48
2021/11/25 02:10:14;;;;;;;0.93;0.93;;;;;;;3.74;100.00;99900.72;5045411;28;20524;-47
2021/11/25 02:12:42;;;;;;;0.20;0.10;;;;;;;3.68;100.00;99886.75;5042007;28;20446;-47
2021/11/25 02:15:11;;;;;;;0.20;0.10;;;;;;;3.65;100.00;99885.03;5039134;28;20871;-47
2021/11/25 02:17:37;;;;;;;0.20;0.10;;;;;;;3.66;100.00;99878.00;5042128;28;20537;-47
2021/11/25 02:20:07;;;;;;;4.67;1.37;;;;;;;3.69;100.00;99878.84;5045674;28;20498;-47
2021/11/25 02:22:35;;;;;;;0.20;0.20;;;;;;;3.77;100.00;99871.78;5043377;28;20447;-47
2021/11/25 02:25:03;;;;;;;0.20;0.10;;;;;;;3.63;100.00;99868.41;5038525;28;20486;-48
2021/11/25 02:27:30;;;;;;;0.53;0.53;;;;;;;3.65;100.00;99865.75;5040502;28;21232;-48
2021/11/25 02:29:57;;;;;;;0.20;0.10;;;;;;;3.58;100.00;99859.69;5045273;28;20510;-47
2021/11/25 02:32:31;;;;;;;0.20;0.10;;;;;;;3.63;100.00;99865.75;5048196;28;20479;-47
2021/11/25 02:34:59;;;;;;;5.43;1.03;;;;;;;3.57;100.00;99865.81;5038701;28;20450;-47
2021/11/25 02:37:26;;;;;;;0.37;0.37;;;;;;;3.47;100.00;99861.50;5038424;28;20480;-48
2021/11/25 02:39:53;;;;;;;0.60;0.60;;;;;;;3.54;100.00;99861.44;5045000;28;20501;-47
2021/11/25 02:42:20;;;;;;;0.20;0.10;;;;;;;3.75;100.00;99875.31;5046011;28;20451;-47
2021/11/25 02:44:46;;;;;;;0.20;0.10;;;;;;;3.65;100.00;99865.75;5039733;28;20496;-47
2021/11/25 02:47:13;;;;;;;0.20;0.20;;;;;;;3.66;100.00;99872.75;5038901;28;20835;-47
2021/11/25 02:49:41;;;;;;;0.20;0.10;;;;;;;3.73;100.00;99872.72;5045201;28;20478;-47
2021/11/25 02:52:08;;;;;;;0.43;0.43;;;;;;;3.74;100.00;99874.44;5046561;28;20932;-47
2021/11/25 02:54:36;;;;;;;0.20;0.10;;;;;;;3.74;100.00;99884.97;5065225;28;20450;-47
2021/11/25 02:57:02;;;;;;;0.20;0.20;;;;;;;3.82;100.00;99885.75;5038618;28;20468;-47
2021/11/25 02:59:29;;;;;;;0.27;0.13;;;;;;;3.77;100.00;99884.94;5058359;28;20461;-48
2021/11/25 03:01:56;;;;;;;0.20;0.10;;;;;;;4.05;100.00;99875.06;5057480;28;20457;-47
2021/11/25 03:04:23;;;;;;;0.30;0.30;;;;;;;4.24;98.96;99865.22;5044282;28;20940;-47
2021/11/25 03:06:49;;;;;;;0.30;0.20;;;;;;;3.97;98.60;99868.09;5045036;28;20478;-47
2021/11/25 03:09:18;;;;;;;0.20;0.10;;;;;;;3.88;100.00;99871.72;5039483;28;20532;-47
2021/11/25 03:11:46;;;;;;;0.30;0.17;;;;;;;3.75;99.57;99859.53;5038244;28;20909;-47
2021/11/25 03:14:12;;;;;;;0.20;0.10;;;;;;;3.72;100.00;99855.19;5044689;28;20991;-47
2021/11/25 03:16:39;;;;;;;0.20;0.20;;;;;;;3.54;100.00;99847.44;5048576;28;20467;-47
2021/11/25 03:19:06;;;;;;;0.20;0.10;;;;;;;3.66;100.00;99844.72;5043741;28;20447;-47
2021/11/25 03:21:32;;;;;;;0.20;0.10;;;;;;;3.65;100.00;99850.84;5041931;28;20596;-47
2021/11/25 03:23:59;;;;;;;1.40;1.40;;;;;;;3.69;100.00;99855.19;5046829;28;20455;-47
2021/11/25 03:26:26;;;;;;;1.27;1.17;;;;;;;3.68;100.00;99849.94;5048459;28;20468;-47
2021/11/25 03:28:54;;;;;;;0.20;0.10;;;;;;;3.70;100.00;99837.66;5044409;28;20450;-47
2021/11/25 03:31:25;;;;;;;0.20;0.10;;;;;;;3.89;100.00;99839.28;5046424;28;20486;-48
2021/11/25 03:33:53;;;;;;;0.20;0.10;;;;;;;3.77;100.00;99831.50;5045417;28;20447;-47
2021/11/25 03:36:20;;;;;;;0.20;0.20;;;;;;;3.42;100.00;99824.75;5048319;28;20472;-47
2021/11/25 03:38:47;;;;;;;0.30;0.20;;;;;;;3.52;100.00;99829.06;5045613;28;20443;-47
2021/11/25 03:41:14;;;;;;;0.20;0.10;;;;;;;3.61;100.00;99843.88;5041444;28;20880;-47
2021/11/25 03:43:41;;;;;;;0.50;0.50;;;;;;;3.63;100.00;99841.25;5044470;28;20487;-47
2021/11/25 03:46:08;;;;;;;0.20;0.17;;;;;;;3.76;100.00;99849.03;5048292;28;20506;-47
2021/11/25 03:48:35;;;;;;;0.20;0.20;;;;;;;3.75;100.00;99841.16;5045220;28;20828;-47
2021/11/25 03:51:05;;;;;;;0.20;0.10;;;;;;;3.71;100.00;99835.06;5041559;28;20487;-47
2021/11/25 03:53:34;;;;;;;0.20;0.10;;;;;;;3.71;100.00;99829.81;5067094;28;20477;-47
2021/11/25 03:56:01;;;;;;;0.20;0.10;;;;;;;3.76;100.00;99830.63;5049812;28;20502;-47
2021/11/25 03:58:28;;;;;;;0.20;0.10;;;;;;;3.75;100.00;99839.41;5047185;28;20455;-47
2021/11/25 04:00:55;;;;;;;0.20;0.10;;;;;;;3.70;100.00;99827.16;5066816;28;20455;-47
2021/11/25 04:03:23;;;;;;;0.20;0.10;;;;;;;3.69;100.00;99820.16;5054466;28;20814;-47
2021/11/25 04:05:50;;;;;;;0.20;0.10;;;;;;;3.76;100.00;99829.75;5041346;28;20483;-48
2021/11/25 04:08:17;;;;;;;0.20;0.10;;;;;;;3.66;100.00;99826.31;5041348;28;20467;-48
2021/11/25 04:10:43;;;;;;;0.20;0.10;;;;;;;3.56;100.00;99819.38;5041003;28;20487;-47
2021/11/25 04:13:10;;;;;;;0.20;0.10;;;;;;;3.67;100.00;99820.19;5040972;28;20452;-48
2021/11/25 04:15:38;;;;;;;0.20;0.10;;;;;;;3.63;100.00;99812.34;5047456;28;20456;-47
2021/11/25 04:18:04;;;;;;;0.20;0.10;;;;;;;3.53;100.00;99816.78;5047627;28;20502;-48
2021/11/25 04:20:31;;;;;;;0.23;0.20;;;;;;;3.63;100.00;99813.22;5041601;28;20478;-48
2021/11/25 04:22:58;;;;;;;0.20;0.10;;;;;;;3.68;100.00;99816.66;5041005;28;20509;-47
2021/11/25 04:25:25;;;;;;;0.20;0.20;;;;;;;3.68;100.00;99814.03;5045837;28;20498;-47
2021/11/25 04:27:52;;;;;;;0.20;0.20;;;;;;;3.72;100.00;99815.78;5047591;28;20525;-47
2021/11/25 04:35:34;;;;;;;0.20;0.10;;;;;;;3.72;100.00;99825.41;5044532;28;20443;-48
2021/11/25 04:38:16;;;;;;;0.27;0.20;;;;;;;3.62;100.00;99826.38;5051671;22;20846;-47
2021/11/25 04:40:50;;;;;;;0.20;0.20;;;;;;;3.40;100.00;99812.50;5022675;28;20456;-48
2021/11/25 04:43:18;;;;;;;0.20;0.10;;;;;;;3.60;100.00;99820.25;5029000;28;20456;-47
2021/11/25 04:45:46;;;;;;;0.20;0.13;;;;;;;3.56;100.00;99822.00;5029529;28;20451;-48
2021/11/25 04:48:14;;;;;;;0.30;0.30;;;;;;;3.49;100.00;99818.56;5024565;28;20472;-47
2021/11/25 04:50:41;;;;;;;0.20;0.20;;;;;;;3.43;100.00;99823.03;5022480;28;20575;-47
2021/11/25 04:53:10;;;;;;;1.90;1.27;;;;;;;3.54;100.00;99821.16;5044037;28;20471;-47
2021/11/25 04:55:37;;;;;;;0.20;0.10;;;;;;;3.53;100.00;99822.91;5026311;28;20503;-49
2021/11/25 04:58:04;;;;;;;1.13;1.03;;;;;;;3.41;100.00;99814.25;5026108;28;20472;-47
2021/11/25 05:00:32;;;;;;;0.20;0.10;;;;;;;3.39;100.00;99816.03;5043866;28;20975;-47
2021/11/25 05:02:59;;;;;;;0.67;0.50;;;;;;;3.57;100.00;99815.91;5035569;28;20944;-47
2021/11/25 05:05:26;;;;;;;0.50;0.50;;;;;;;3.69;100.00;99817.53;5021941;28;20452;-47
2021/11/25 05:07:52;;;;;;;0.20;0.10;;;;;;;3.70;100.00;99809.66;5025597;28;20464;-47
2021/11/25 05:10:19;;;;;;;0.63;0.63;;;;;;;3.78;100.00;99804.31;5028241;28;20848;-47
2021/11/25 05:12:45;;;;;;;0.20;0.20;;;;;;;3.67;100.00;99800.91;5025175;28;20447;-47
2021/11/25 05:15:14;;;;;;;0.20;0.10;;;;;;;3.72;100.00;99807.00;5022115;28;20451;-47
2021/11/25 05:17:42;;;;;;;0.33;0.33;;;;;;;3.78;100.00;99805.19;5024187;28;20479;-47
2021/11/25 05:20:12;;;;;;;0.20;0.10;;;;;;;3.62;100.00;99811.47;5028139;28;20457;-47
2021/11/25 05:22:40;;;;;;;0.30;0.20;;;;;;;3.50;100.00;99806.31;5026566;28;20448;-47
2021/11/25 05:25:08;;;;;;;0.20;0.10;;;;;;;3.61;100.00;99807.09;5022013;28;20444;-47
2021/11/25 05:27:35;;;;;;;0.20;0.10;;;;;;;3.65;100.00;99800.94;5035450;28;20542;-47
2021/11/25 05:30:04;;;;;;;0.20;0.10;;;;;;;3.67;100.00;99790.41;5021597;28;20871;-49
2021/11/25 05:32:31;;;;;;;0.20;0.10;;;;;;;3.60;100.00;99793.97;5030411;28;20497;-47
2021/11/25 05:34:57;;;;;;;17.10;1.40;;;;;;;3.64;100.00;99791.31;5028920;28;20507;-48
2021/11/25 05:37:24;;;;;;;0.20;0.10;;;;;;;3.24;100.00;99777.59;5026456;28;20479;-47
2021/11/25 05:39:56;;;;;;;0.30;0.30;;;;;;;3.41;100.00;99772.22;5015566;28;20464;-48
2021/11/25 05:42:22;;;;;;;0.20;0.20;;;;;;;3.42;100.00;99781.84;5040113;28;20451;-50
2021/11/25 05:44:49;;;;;;;0.63;0.63;;;;;;;3.45;100.00;99772.19;5034471;28;20451;-48
2021/11/25 05:47:17;;;;;;;0.20;0.20;;;;;;;3.48;100.00;99785.31;5026092;28;20500;-48
2021/11/25 05:49:43;;;;;;;0.30;0.30;;;;;;;3.51;100.00;99787.03;5027553;28;20456;-48
2021/11/25 05:52:10;;;;;;;2.20;2.00;;;;;;;3.52;100.00;99781.75;5028726;28;20491;-48
2021/11/25 05:54:37;;;;;;;0.20;0.10;;;;;;;3.57;100.00;99792.25;5034873;28;20456;-48
2021/11/25 05:57:04;;;;;;;0.20;0.10;;;;;;;3.62;100.00;99797.47;5021148;28;20473;-48
2021/11/25 05:59:31;;;;;;;0.20;0.20;;;;;;;3.57;100.00;99802.75;5041079;28;20512;-48
2021/11/25 06:01:57;;;;;;;0.20;0.10;;;;;;;3.54;100.00;99800.13;5039290;28;20447;-47
2021/11/25 06:04:24;;;;;;;0.20;0.20;;;;;;;3.62;100.00;99793.06;5026560;28;20452;-47
2021/11/25 06:06:50;;;;;;;0.30;0.10;;;;;;;3.70;100.00;99795.63;5015208;28;20448;-48
2021/11/25 06:09:17;;;;;;;0.40;0.40;;;;;;;3.75;100.00;99793.84;5026194;28;20476;-47
2021/11/25 06:11:45;;;;;;;0.20;0.10;;;;;;;3.72;100.00;99788.63;5027001;28;20700;-48
2021/11/25 06:14:11;;;;;;;0.20;0.10;;;;;;;3.65;100.00;99785.16;5021230;28;20447;-48
2021/11/25 06:16:38;;;;;;;0.30;0.10;;;;;;;3.59;100.00;99769.47;5019471;28;20510;-48
2021/11/25 06:19:04;;;;;;;0.20;0.20;;;;;;;3.65;100.00;99774.66;5024716;28;20483;-48
2021/11/25 06:21:31;;;;;;;0.30;0.30;;;;;;;3.61;100.00;99772.06;5026496;28;20451;-48
2021/11/25 06:23:58;;;;;;;0.20;0.10;;;;;;;3.54;100.00;99771.25;5021232;28;20460;-48
2021/11/25 06:26:24;;;;;;;0.20;0.10;;;;;;;3.67;100.00;99772.88;5019742;28;21016;-49
2021/11/25 06:28:54;;;;;;;0.20;0.10;;;;;;;3.58;100.00;99772.97;5025776;28;20478;-48
2021/11/25 06:31:22;;;;;;;0.50;0.50;;;;;;;3.55;100.00;99779.09;5028357;28;21000;-48
2021/11/25 06:33:49;;;;;;;0.20;0.10;;;;;;;3.66;100.00;99773.75;5024278;28;20502;-48
2021/11/25 06:36:16;;;;;;;0.20;0.10;;;;;;;3.70;100.00;99780.75;5026968;28;20484;-48
2021/11/25 06:38:43;;;;;;;0.93;0.93;;;;;;;3.66;100.00;99780.78;5022624;28;20851;-48
2021/11/25 06:41:09;;;;;;;0.20;0.10;;;;;;;3.79;100.00;99779.78;5020619;28;20456;-48
2021/11/25 06:43:36;;;;;;;0.20;0.10;;;;;;;3.89;100.00;99785.81;5026425;28;20503;-48
2021/11/25 06:46:03;;;;;;;0.20;0.10;;;;;;;3.81;100.00;99785.88;5035727;28;20447;-48
2021/11/25 06:48:30;;;;;;;0.20;0.10;;;;;;;3.80;100.00;99774.50;5036028;28;20976;-49
2021/11/25 06:50:56;;;;;;;1.77;1.77;;;;;;;3.75;100.00;99771.06;5038249;28;20534;-48
2021/11/25 06:53:25;;;;;;;0.20;0.10;;;;;;;3.58;100.00;99770.34;5063700;28;20443;-49
2021/11/25 06:55:52;;;;;;;0.20;0.10;;;;;;;3.64;100.00;99775.53;5054610;28;20432;-50
2021/11/25 06:58:19;;;;;;;0.20;0.10;;;;;;;3.66;100.00;99780.78;5048376;28;20896;-48
2021/11/25 07:00:46;;;;;;;0.20;0.10;;;;;;;3.53;100.00;99786.13;5069439;28;20952;-49
2021/11/25 07:03:13;;;;;;;0.20;0.10;;;;;;;3.61;100.00;99782.59;5056986;28;20448;-49
2021/11/25 07:05:43;;;;;;;0.77;0.77;;;;;;;3.78;100.00;99786.78;5044631;28;20484;-48
2021/11/25 07:08:09;;;;;;;0.20;0.10;;;;;;;3.82;100.00;99791.13;5028590;28;20464;-47
2021/11/25 07:10:36;;;;;;;15.83;2.00;;;;;;;3.81;100.00;99789.38;5028931;28;20452;-49
2021/11/25 07:13:03;;;;;;;0.20;0.20;;;;;;;3.75;100.00;99780.69;5029318;28;20512;-48
2021/11/25 07:15:29;;;;;;;3.30;3.03;;;;;;;3.86;100.00;99784.97;5021495;28;20831;-48
2021/11/25 07:17:56;;;;;;;0.20;0.10;;;;;;;4.30;100.00;99781.00;5023066;28;20546;-48
2021/11/25 07:20:23;;;;;;;0.20;0.10;;;;;;;4.31;100.00;99772.22;5029080;28;20452;-48
2021/11/25 07:22:50;;;;;;;0.20;0.10;;;;;;;4.36;100.00;99777.41;5028692;28;20447;-48
2021/11/25 07:25:17;;;;;;;0.20;0.10;;;;;;;4.22;100.00;99777.56;5022109;28;20463;-49
2021/11/25 07:27:45;;;;;;;0.20;0.10;;;;;;;4.02;100.00;99790.94;5022130;28;20843;-48
2021/11/25 07:30:14;;;;;;;0.20;0.20;;;;;;;3.88;100.00;99792.84;5022996;28;20455;-49
2021/11/25 07:32:41;;;;;;;0.20;0.10;;;;;;;3.90;100.00;99790.19;5034905;28;20487;-48
2021/11/25 07:35:09;;;;;;;0.30;0.30;;;;;;;3.86;100.00;99800.75;5023577;28;20497;-48
2021/11/25 07:37:37;;;;;;;0.23;0.20;;;;;;;3.84;100.00;99802.53;5033708;28;20487;-48
2021/11/25 07:40:06;;;;;;;0.50;0.43;;;;;;;3.89;100.00;99802.47;5023826;28;20964;-48
2021/11/25 07:42:33;;;;;;;0.20;0.10;;;;;;;3.92;100.00;99809.44;5021940;28;20444;-48
2021/11/25 07:45:01;;;;;;;1.97;0.97;;;;;;;3.85;100.00;99812.16;5026616;28;20476;-48
2021/11/25 07:47:33;;;;;;;0.77;0.77;;;;;;;3.89;100.00;99812.13;5028598;28;20467;-49
2021/11/25 07:50:06;;;;;;;0.77;0.77;;;;;;;3.89;100.00;99812.97;5025082;28;20866;-48
2021/11/25 07:52:33;;;;;;;0.63;0.63;;;;;;;3.91;100.00;99823.47;5025649;28;20849;-48
2021/11/25 07:55:00;;;;;;;0.20;0.10;;;;;;;3.89;100.00;99822.63;5044494;28;20820;-48
2021/11/25 07:57:27;;;;;;;0.20;0.10;;;;;;;3.93;100.00;99827.84;5021912;28;20471;-48
2021/11/25 07:59:54;;;;;;;0.20;0.10;;;;;;;3.95;100.00;99826.06;5036665;28;20944;-49
2021/11/25 08:02:20;;;;;;;0.20;0.20;;;;;;;3.96;100.00;99821.66;5036262;28;20444;-47
2021/11/25 08:04:47;;;;;;;2.10;1.20;;;;;;;4.07;100.00;99830.34;5031983;28;20449;-48
2021/11/25 08:07:16;;;;;;;0.20;0.10;;;;;;;3.96;100.00;99824.31;5039141;28;20596;-48
2021/11/25 08:09:43;;;;;;;0.20;0.13;;;;;;;3.95;100.00;99825.19;5041098;28;20452;-49
2021/11/25 08:12:09;;;;;;;0.30;0.20;;;;;;;3.99;100.00;99827.78;5021738;28;20537;-49
2021/11/25 08:14:37;;;;;;;0.30;0.30;;;;;;;3.85;100.00;99820.03;5022714;28;20468;-48
2021/11/25 08:17:03;;;;;;;0.20;0.10;;;;;;;3.91;100.00;99812.97;5028235;28;20583;-48
2021/11/25 08:19:30;;;;;;;3.43;1.70;;;;;;;3.96;100.00;99814.66;5026359;28;20452;-48
2021/11/25 08:21:57;;;;;;;0.20;0.20;;;;;;;3.86;100.00;99816.53;5021433;28;20451;-48
2021/11/25 08:24:25;;;;;;;1.27;1.17;;;;;;;3.90;100.00;99811.22;5022940;28;20511;-49
2021/11/25 08:26:53;;;;;;;0.20;0.10;;;;;;;3.85;100.00;99814.78;5027724;28;20457;-48
2021/11/25 08:29:20;;;;;;;0.67;0.67;;;;;;;4.06;100.00;99813.69;5027647;28;20522;-49
2021/11/25 08:31:47;;;;;;;0.20;0.10;;;;;;;3.88;100.00;99815.63;5025027;28;20549;-48
2021/11/25 08:34:15;;;;;;;0.20;0.10;;;;;;;3.89;100.00;99810.34;5021614;28;20452;-48
2021/11/25 08:36:41;;;;;;;0.20;0.20;;;;;;;4.04;100.00;99811.97;5027899;28;20448;-48
2021/11/25 08:39:08;;;;;;;0.20;0.10;;;;;;;3.99;100.00;99805.88;5025496;28;20476;-49
2021/11/25 08:41:35;;;;;;;0.20;0.20;;;;;;;4.05;100.00;99825.09;5026225;28;20448;-48
2021/11/25 08:44:02;;;;;;;0.20;0.10;;;;;;;4.11;100.00;99824.16;5033876;28;20452;-49
2021/11/25 08:46:29;;;;;;;0.20;0.10;;;;;;;4.15;100.00;99828.50;5021211;28;20974;-48
2021/11/25 08:48:56;;;;;;;0.50;0.50;;;;;;;4.10;100.00;99830.28;5020838;28;20522;-49
2021/11/25 08:51:23;;;;;;;0.20;0.20;;;;;;;4.22;100.00;99837.19;5027633;28;20503;-49
2021/11/25 08:53:50;;;;;;;0.70;0.70;;;;;;;4.15;100.00;99836.41;5025206;28;20985;-48
2021/11/25 08:56:17;;;;;;;0.20;0.10;;;;;;;4.13;100.00;99839.06;5029501;28;20452;-49
2021/11/25 08:58:44;;;;;;;0.30;0.20;;;;;;;4.04;100.00;99827.75;5032211;28;20472;-50
2021/11/25 09:01:10;;;;;;;0.20;0.10;;;;;;;4.05;100.00;99825.09;5047183;28;20452;-48
2021/11/25 09:03:37;;;;;;;0.30;0.20;;;;;;;4.06;100.00;99832.09;5032712;28;20522;-49
2021/11/25 09:06:04;;;;;;;0.20;0.13;;;;;;;4.05;100.00;99838.25;5022078;28;20455;-48
2021/11/25 09:08:31;;;;;;;0.20;0.20;;;;;;;4.07;100.00;99831.19;5019710;28;20467;-48
2021/11/25 09:10:57;;;;;;;0.43;0.40;;;;;;;4.02;100.00;99827.75;5021922;28;20448;-49
2021/11/25 09:13:24;;;;;;;0.40;0.40;;;;;;;4.04;100.00;99825.97;5020196;28;20539;-48
2021/11/25 09:15:51;;;;;;;0.30;0.10;;;;;;;4.19;100.00;99826.72;5025878;28;20506;-49
2021/11/25 09:18:18;;;;;;;0.20;0.10;;;;;;;4.12;100.00;99825.91;5027333;28;20471;-49
2021/11/25 09:20:45;;;;;;;0.30;0.30;;;;;;;4.19;100.00;99829.34;5023173;28;20867;-49
2021/11/25 09:23:15;;;;;;;0.20;0.10;;;;;;;4.11;100.00;99837.28;5020880;28;20448;-49
2021/11/25 09:25:43;;;;;;;0.30;0.20;;;;;;;4.11;100.00;99838.19;5024249;28;20496;-49
2021/11/25 09:28:16;;;;;;;0.20;0.10;;;;;;;4.19;100.00;99840.75;5026749;28;20534;-48
2021/11/25 09:30:44;;;;;;;0.20;0.10;;;;;;;4.28;100.00;99850.31;5024626;28;20448;-49
2021/11/25 09:33:12;;;;;;;4.00;2.57;;;;;;;4.30;100.00;99835.38;5028234;28;20546;-49
2021/11/25 09:35:39;;;;;;;0.20;0.10;;;;;;;4.25;100.00;99845.06;5025354;28;20447;-48
2021/11/25 09:38:08;;;;;;;0.20;0.10;;;;;;;4.22;100.00;99853.84;5019856;28;20534;-48
2021/11/25 09:40:35;;;;;;;0.20;0.20;;;;;;;4.15;100.00;99862.69;5020592;28;20452;-48
2021/11/25 09:43:10;;;;;;;0.20;0.10;;;;;;;4.11;100.00;99855.72;5020047;28;20555;-48
2021/11/25 09:45:40;;;;;;;0.20;0.10;;;;;;;4.23;100.00;99850.31;5019708;28;20452;-48
2021/11/25 09:48:11;;;;;;;0.20;0.10;;;;;;;4.30;100.00;99843.25;5025441;28;20473;-48
2021/11/25 09:50:44;;;;;;;5.40;2.40;;;;;;;4.29;100.00;99847.66;5026378;28;20870;-48
2021/11/25 09:53:13;;;;;;;4.73;1.17;;;;;;;4.28;100.00;99842.41;5012861;28;20997;-48
2021/11/25 09:55:43;;;;;;;0.20;0.10;;;;;;;4.37;100.00;99837.03;5012628;28;20449;-49
2021/11/25 09:58:15;;;;;;;0.20;0.10;;;;;;;4.27;99.82;99835.41;5013389;28;20516;-49
2021/11/25 10:00:45;;;;;;;0.20;0.10;;;;;;;4.33;99.13;99820.41;5043015;28;20505;-48
2021/11/25 10:03:16;;;;;;;0.37;0.37;;;;;;;4.39;99.28;99823.00;5032684;28;20444;-48
2021/11/25 10:05:51;;;;;;;0.20;0.10;;;;;;;4.50;98.75;99819.34;5019235;28;20455;-48
2021/11/25 10:08:27;;;;;;;0.20;0.10;;;;;;;4.51;98.65;99814.06;5019280;28;20526;-49
2021/11/25 10:11:01;;;;;;;0.20;0.10;;;;;;;4.60;98.51;99808.69;5024596;28;20502;-49
2021/11/25 10:13:37;;;;;;;0.20;0.10;;;;;;;4.63;99.08;99799.91;5026193;28;20546;-48
2021/11/25 10:16:08;;;;;;;0.20;0.17;;;;;;;4.76;100.00;99796.22;5023194;28;20458;-48
2021/11/25 10:18:36;;;;;;;0.30;0.20;;;;;;;5.08;98.33;99794.94;5019311;28;20467;-49
2021/11/25 10:21:09;;;;;;;0.30;0.20;;;;;;;4.73;98.47;99801.53;5020692;28;20452;-49
2021/11/25 10:23:37;;;;;;;0.47;0.47;;;;;;;4.77;100.00;99797.94;5025050;28;20448;-48
2021/11/25 10:26:11;;;;;;;0.30;0.20;;;;;;;4.78;100.00;99797.06;5025653;28;20478;-48
2021/11/25 10:28:41;;;;;;;0.30;0.30;;;;;;;4.72;99.88;99799.78;5024610;28;20480;-48
2021/11/25 10:31:22;;;;;;;0.20;0.10;;;;;;;4.67;99.13;99794.59;5027089;28;20482;-48
2021/11/25 10:41:57;;;;;;;2.53;1.47;;;;;;;4.81;99.79;99778.63;5022016;28;20443;-49
2021/11/25 10:44:33;;;;;;;0.70;0.63;;;;;;;5.06;98.94;99782.63;5019083;28;20444;-49
2021/11/25 10:47:11;;;;;;;0.20;0.10;;;;;;;5.22;98.57;99782.41;5020672;28;20891;-49
2021/11/25 10:49:38;;;;;;;1.33;0.47;;;;;;;5.04;98.38;99791.44;5019890;28;20460;-50
2021/11/25 10:52:18;;;;;;;0.20;0.13;;;;;;;4.98;98.93;99786.28;5019240;28;20566;-50
2021/11/25 10:54:48;;;;;;;0.20;0.10;;;;;;;5.11;97.87;99786.97;5020942;28;20494;-50
2021/11/25 10:57:16;;;;;;;0.20;0.20;;;;;;;5.17;98.86;99782.47;5029471;28;20468;-49
2021/11/25 10:59:46;;;;;;;0.30;0.30;;;;;;;4.98;100.00;99781.00;5030505;28;20524;-50
2021/11/25 11:02:28;;;;;;;0.20;0.10;;;;;;;4.76;100.00;99775.16;5021034;28;20472;-49
2021/11/25 11:04:59;;;;;;;0.93;0.93;;;;;;;4.70;100.00;99781.38;5025020;28;20882;-49
2021/11/25 11:07:33;;;;;;;0.70;0.70;;;;;;;4.90;99.31;99780.22;5018681;28;20496;-49
2021/11/25 11:10:00;;;;;;;1.03;0.73;;;;;;;4.87;99.24;99786.41;5031074;28;20444;-49
2021/11/25 11:12:32;;;;;;;3.80;1.40;;;;;;;4.89;99.18;99794.28;5019715;28;20494;-50
2021/11/25 11:15:29;;;;;;;0.20;0.20;;;;;;;4.94;99.10;99792.50;5029817;28;20474;-49
2021/11/25 11:18:02;;;;;;;0.87;0.87;;;;;;;4.90;98.00;99793.41;5024977;28;20467;-49
2021/11/25 11:20:35;;;;;;;0.20;0.20;;;;;;;5.03;98.63;99789.69;5031770;28;20447;-50
2021/11/25 11:23:06;;;;;;;0.30;0.27;;;;;;;5.08;97.70;99790.53;5017241;28;20445;-49
2021/11/25 11:25:34;;;;;;;0.30;0.20;;;;;;;4.94;97.56;99789.84;5020806;28;20475;-49
2021/11/25 11:28:04;;;;;;;0.50;0.50;;;;;;;5.25;97.27;99782.38;5018460;28;21063;-49
2021/11/25 11:30:31;;;;;;;0.23;0.20;;;;;;;5.15;97.35;99786.91;5022566;28;20456;-50
2021/11/25 11:32:58;;;;;;;0.40;0.40;;;;;;;5.08;97.81;99773.84;5019005;28;20518;-49
2021/11/25 11:35:25;;;;;;;1.73;1.63;;;;;;;5.00;97.11;99768.69;5032189;28;20518;-49
2021/11/25 11:37:55;;;;;;;0.27;0.17;;;;;;;4.96;97.00;99777.53;5022192;28;20510;-48
2021/11/25 11:40:24;;;;;;;1.13;1.13;;;;;;;4.93;97.88;99767.00;5024517;28;20453;-49
2021/11/25 11:42:53;;;;;;;1.50;1.50;;;;;;;5.14;97.31;99760.56;5028597;28;20445;-49
2021/11/25 11:45:22;;;;;;;0.20;0.20;;;;;;;5.01;96.19;99763.38;5015375;28;20448;-49
2021/11/25 11:47:54;;;;;;;2.30;2.30;;;;;;;5.16;95.55;99769.31;5028609;28;20484;-50
2021/11/25 11:50:49;;;;;;;0.20;0.10;;;;;;;4.99;96.23;99756.41;5015396;28;20448;-50
2021/11/25 11:53:19;;;;;;;1.10;0.87;;;;;;;4.85;95.90;99761.88;5032894;28;20541;-49